sensor_id;sensor_type;location;lat;lon;timestamp;P1;durP1;ratioP1;P2;durP2;ratioP2
53010;SDS011;42803;55.762;38.084;2022-10-16T00:02:31;17.50;;;7.68;;
53010;SDS011;42803;55.762;38.084;2022-10-16T00:05:01;18.10;;;7.07;;
53010;SDS011;42803;55.762;38.084;2022-10-16T00:07:30;17.33;;;6.72;;
53010;SDS011;42803;55.762;38.084;2022-10-16T00:10:00;14.82;;;7.18;;
53010;SDS011;42803;55.762;38.084;2022-10-16T00:12:30;15.40;;;7.00;;
53010;SDS011;42803;55.762;38.084;2022-10-16T00:14:59;17.33;;;7.47;;
53010;SDS011;42803;55.762;38.084;2022-10-16T00:17:30;14.27;;;7.22;;
53010;SDS011;42803;55.762;38.084;2022-10-16T00:20:04;15.38;;;7.90;;
53010;SDS011;42803;55.762;38.084;2022-10-16T00:22:55;13.25;;;6.97;;
53010;SDS011;42803;55.762;38.084;2022-10-16T00:25:24;13.40;;;7.10;;
53010;SDS011;42803;55.762;38.084;2022-10-16T00:27:54;13.30;;;6.53;;
53010;SDS011;42803;55.762;38.084;2022-10-16T00:30:25;16.63;;;7.78;;
53010;SDS011;42803;55.762;38.084;2022-10-16T00:32:56;15.63;;;7.22;;
53010;SDS011;42803;55.762;38.084;2022-10-16T00:35:25;18.88;;;7.13;;
53010;SDS011;42803;55.762;38.084;2022-10-16T00:37:56;18.60;;;6.68;;
53010;SDS011;42803;55.762;38.084;2022-10-16T00:40:26;15.35;;;7.00;;
53010;SDS011;42803;55.762;38.084;2022-10-16T00:42:57;16.83;;;7.15;;
53010;SDS011;42803;55.762;38.084;2022-10-16T00:45:28;24.83;;;7.30;;
53010;SDS011;42803;55.762;38.084;2022-10-16T00:47:57;16.30;;;6.20;;
53010;SDS011;42803;55.762;38.084;2022-10-16T00:50:28;12.15;;;6.63;;
53010;SDS011;42803;55.762;38.084;2022-10-16T00:53:00;13.70;;;6.38;;
53010;SDS011;42803;55.762;38.084;2022-10-16T00:55:31;14.95;;;6.80;;
53010;SDS011;42803;55.762;38.084;2022-10-16T00:58:08;15.88;;;5.78;;
53010;SDS011;42803;55.762;38.084;2022-10-16T01:00:40;12.90;;;5.85;;
53010;SDS011;42803;55.762;38.084;2022-10-16T01:03:22;10.65;;;5.40;;
53010;SDS011;42803;55.762;38.084;2022-10-16T01:05:56;11.82;;;5.97;;
53010;SDS011;42803;55.762;38.084;2022-10-16T01:14:39;12.18;;;5.63;;
53010;SDS011;42803;55.762;38.084;2022-10-16T01:27:05;11.43;;;5.72;;
53010;SDS011;42803;55.762;38.084;2022-10-16T01:32:28;12.38;;;6.10;;
53010;SDS011;42803;55.762;38.084;2022-10-16T01:35:02;11.52;;;5.63;;
53010;SDS011;42803;55.762;38.084;2022-10-16T01:37:38;15.05;;;6.13;;
53010;SDS011;42803;55.762;38.084;2022-10-16T01:40:11;9.80;;;5.43;;
53010;SDS011;42803;55.762;38.084;2022-10-16T01:42:51;10.95;;;6.60;;
53010;SDS011;42803;55.762;38.084;2022-10-16T01:45:25;10.02;;;5.20;;
53010;SDS011;42803;55.762;38.084;2022-10-16T01:47:56;9.35;;;5.63;;
53010;SDS011;42803;55.762;38.084;2022-10-16T01:50:31;13.48;;;5.97;;
53010;SDS011;42803;55.762;38.084;2022-10-16T01:53:07;8.57;;;4.63;;
53010;SDS011;42803;55.762;38.084;2022-10-16T01:55:40;13.98;;;5.50;;
53010;SDS011;42803;55.762;38.084;2022-10-16T01:58:15;8.82;;;5.38;;
53010;SDS011;42803;55.762;38.084;2022-10-16T02:00:46;14.85;;;5.90;;
53010;SDS011;42803;55.762;38.084;2022-10-16T02:03:18;9.45;;;5.38;;
53010;SDS011;42803;55.762;38.084;2022-10-16T02:05:50;11.30;;;5.70;;
53010;SDS011;42803;55.762;38.084;2022-10-16T02:08:26;14.65;;;6.57;;
53010;SDS011;42803;55.762;38.084;2022-10-16T02:10:58;9.52;;;5.30;;
53010;SDS011;42803;55.762;38.084;2022-10-16T02:13:31;9.65;;;5.15;;
53010;SDS011;42803;55.762;38.084;2022-10-16T02:16:03;9.40;;;5.57;;
53010;SDS011;42803;55.762;38.084;2022-10-16T02:18:32;10.15;;;5.35;;
53010;SDS011;42803;55.762;38.084;2022-10-16T02:21:05;14.80;;;6.53;;
53010;SDS011;42803;55.762;38.084;2022-10-16T02:23:45;10.32;;;5.47;;
53010;SDS011;42803;55.762;38.084;2022-10-16T02:26:25;13.50;;;6.15;;
53010;SDS011;42803;55.762;38.084;2022-10-16T02:29:01;17.30;;;6.22;;
53010;SDS011;42803;55.762;38.084;2022-10-16T02:31:35;13.00;;;5.38;;
53010;SDS011;42803;55.762;38.084;2022-10-16T02:34:08;12.27;;;5.00;;
53010;SDS011;42803;55.762;38.084;2022-10-16T02:36:39;11.05;;;5.82;;
53010;SDS011;42803;55.762;38.084;2022-10-16T02:39:11;11.82;;;5.85;;
53010;SDS011;42803;55.762;38.084;2022-10-16T02:41:43;10.93;;;5.35;;
53010;SDS011;42803;55.762;38.084;2022-10-16T02:47:41;9.55;;;5.00;;
53010;SDS011;42803;55.762;38.084;2022-10-16T02:50:13;11.02;;;5.10;;
53010;SDS011;42803;55.762;38.084;2022-10-16T02:55:25;10.52;;;5.32;;
53010;SDS011;42803;55.762;38.084;2022-10-16T03:01:02;10.00;;;5.78;;
53010;SDS011;42803;55.762;38.084;2022-10-16T03:03:33;15.68;;;6.45;;
53010;SDS011;42803;55.762;38.084;2022-10-16T03:06:03;19.30;;;7.18;;
53010;SDS011;42803;55.762;38.084;2022-10-16T03:08:36;22.80;;;8.10;;
53010;SDS011;42803;55.762;38.084;2022-10-16T03:11:06;22.35;;;7.18;;
53010;SDS011;42803;55.762;38.084;2022-10-16T03:13:35;15.27;;;7.28;;
53010;SDS011;42803;55.762;38.084;2022-10-16T03:16:06;19.27;;;7.00;;
53010;SDS011;42803;55.762;38.084;2022-10-16T03:21:48;13.55;;;5.90;;
53010;SDS011;42803;55.762;38.084;2022-10-16T03:24:20;12.40;;;5.28;;
53010;SDS011;42803;55.762;38.084;2022-10-16T03:26:49;15.38;;;6.20;;
53010;SDS011;42803;55.762;38.084;2022-10-16T03:29:18;9.60;;;5.05;;
53010;SDS011;42803;55.762;38.084;2022-10-16T03:31:48;13.68;;;5.57;;
53010;SDS011;42803;55.762;38.084;2022-10-16T03:34:20;11.88;;;5.80;;
53010;SDS011;42803;55.762;38.084;2022-10-16T03:36:49;8.80;;;4.93;;
53010;SDS011;42803;55.762;38.084;2022-10-16T03:39:19;11.65;;;5.28;;
53010;SDS011;42803;55.762;38.084;2022-10-16T03:41:48;12.25;;;5.38;;
53010;SDS011;42803;55.762;38.084;2022-10-16T03:44:20;12.57;;;5.82;;
53010;SDS011;42803;55.762;38.084;2022-10-16T03:46:50;10.95;;;5.43;;
53010;SDS011;42803;55.762;38.084;2022-10-16T03:49:21;9.75;;;5.55;;
53010;SDS011;42803;55.762;38.084;2022-10-16T03:51:51;11.10;;;5.07;;
53010;SDS011;42803;55.762;38.084;2022-10-16T03:54:22;10.98;;;5.15;;
53010;SDS011;42803;55.762;38.084;2022-10-16T03:56:51;13.88;;;6.20;;
53010;SDS011;42803;55.762;38.084;2022-10-16T03:59:20;13.73;;;6.20;;
53010;SDS011;42803;55.762;38.084;2022-10-16T04:01:50;9.52;;;5.38;;
53010;SDS011;42803;55.762;38.084;2022-10-16T04:04:21;16.98;;;5.47;;
53010;SDS011;42803;55.762;38.084;2022-10-16T04:06:51;10.88;;;5.20;;
53010;SDS011;42803;55.762;38.084;2022-10-16T04:09:21;10.38;;;5.95;;
53010;SDS011;42803;55.762;38.084;2022-10-16T04:11:50;9.27;;;5.03;;
53010;SDS011;42803;55.762;38.084;2022-10-16T04:14:20;8.18;;;4.68;;
53010;SDS011;42803;55.762;38.084;2022-10-16T04:16:50;13.05;;;5.07;;
53010;SDS011;42803;55.762;38.084;2022-10-16T04:19:22;7.93;;;4.68;;
53010;SDS011;42803;55.762;38.084;2022-10-16T04:21:54;9.57;;;5.47;;
53010;SDS011;42803;55.762;38.084;2022-10-16T04:24:23;10.63;;;4.68;;
53010;SDS011;42803;55.762;38.084;2022-10-16T04:26:53;13.63;;;4.80;;
53010;SDS011;42803;55.762;38.084;2022-10-16T04:29:23;10.82;;;5.10;;
53010;SDS011;42803;55.762;38.084;2022-10-16T04:31:53;8.63;;;4.97;;
53010;SDS011;42803;55.762;38.084;2022-10-16T04:34:25;15.10;;;5.45;;
53010;SDS011;42803;55.762;38.084;2022-10-16T04:36:55;9.48;;;4.57;;
53010;SDS011;42803;55.762;38.084;2022-10-16T04:39:24;11.00;;;4.70;;
53010;SDS011;42803;55.762;38.084;2022-10-16T04:41:54;11.02;;;4.70;;
53010;SDS011;42803;55.762;38.084;2022-10-16T04:44:23;8.82;;;4.38;;
53010;SDS011;42803;55.762;38.084;2022-10-16T04:46:53;11.27;;;4.60;;
53010;SDS011;42803;55.762;38.084;2022-10-16T04:49:27;7.47;;;4.80;;
53010;SDS011;42803;55.762;38.084;2022-10-16T04:52:01;12.48;;;5.25;;
53010;SDS011;42803;55.762;38.084;2022-10-16T04:54:31;7.65;;;4.50;;
53010;SDS011;42803;55.762;38.084;2022-10-16T04:57:00;7.72;;;4.50;;
53010;SDS011;42803;55.762;38.084;2022-10-16T04:59:32;10.32;;;4.80;;
53010;SDS011;42803;55.762;38.084;2022-10-16T05:02:01;8.45;;;4.85;;
53010;SDS011;42803;55.762;38.084;2022-10-16T05:04:32;10.77;;;5.40;;
53010;SDS011;42803;55.762;38.084;2022-10-16T05:07:01;10.65;;;5.38;;
53010;SDS011;42803;55.762;38.084;2022-10-16T05:09:32;12.35;;;5.35;;
53010;SDS011;42803;55.762;38.084;2022-10-16T05:12:01;30.00;;;11.63;;
53010;SDS011;42803;55.762;38.084;2022-10-16T05:14:32;10.02;;;5.53;;
53010;SDS011;42803;55.762;38.084;2022-10-16T05:17:02;14.38;;;5.82;;
53010;SDS011;42803;55.762;38.084;2022-10-16T05:19:34;17.45;;;6.60;;
53010;SDS011;42803;55.762;38.084;2022-10-16T05:22:03;11.43;;;6.20;;
53010;SDS011;42803;55.762;38.084;2022-10-16T05:24:33;12.48;;;7.75;;
53010;SDS011;42803;55.762;38.084;2022-10-16T05:27:03;11.63;;;6.45;;
53010;SDS011;42803;55.762;38.084;2022-10-16T05:29:42;13.10;;;5.90;;
53010;SDS011;42803;55.762;38.084;2022-10-16T05:32:14;13.07;;;5.88;;
53010;SDS011;42803;55.762;38.084;2022-10-16T05:34:56;13.05;;;6.28;;
53010;SDS011;42803;55.762;38.084;2022-10-16T05:37:27;9.00;;;6.03;;
53010;SDS011;42803;55.762;38.084;2022-10-16T05:39:57;11.13;;;5.35;;
53010;SDS011;42803;55.762;38.084;2022-10-16T05:42:27;11.98;;;6.88;;
53010;SDS011;42803;55.762;38.084;2022-10-16T05:44:57;14.60;;;5.55;;
53010;SDS011;42803;55.762;38.084;2022-10-16T05:47:26;10.82;;;4.93;;
53010;SDS011;42803;55.762;38.084;2022-10-16T05:52:54;13.23;;;5.65;;
53010;SDS011;42803;55.762;38.084;2022-10-16T05:55:25;15.38;;;6.75;;
53010;SDS011;42803;55.762;38.084;2022-10-16T05:58:02;10.40;;;6.40;;
53010;SDS011;42803;55.762;38.084;2022-10-16T06:00:32;11.15;;;5.70;;
53010;SDS011;42803;55.762;38.084;2022-10-16T06:03:02;11.82;;;6.13;;
53010;SDS011;42803;55.762;38.084;2022-10-16T06:05:35;14.95;;;6.95;;
53010;SDS011;42803;55.762;38.084;2022-10-16T06:08:09;11.93;;;5.93;;
53010;SDS011;42803;55.762;38.084;2022-10-16T06:10:39;13.05;;;7.00;;
53010;SDS011;42803;55.762;38.084;2022-10-16T06:13:12;15.60;;;5.95;;
53010;SDS011;42803;55.762;38.084;2022-10-16T06:15:42;12.52;;;5.80;;
53010;SDS011;42803;55.762;38.084;2022-10-16T06:18:16;25.58;;;8.55;;
53010;SDS011;42803;55.762;38.084;2022-10-16T06:20:48;11.52;;;5.88;;
53010;SDS011;42803;55.762;38.084;2022-10-16T06:23:20;13.07;;;5.85;;
53010;SDS011;42803;55.762;38.084;2022-10-16T06:25:53;13.20;;;5.67;;
53010;SDS011;42803;55.762;38.084;2022-10-16T06:28:47;12.15;;;6.25;;
53010;SDS011;42803;55.762;38.084;2022-10-16T06:31:18;13.98;;;6.03;;
53010;SDS011;42803;55.762;38.084;2022-10-16T06:33:50;10.43;;;5.53;;
53010;SDS011;42803;55.762;38.084;2022-10-16T06:36:24;13.40;;;6.22;;
53010;SDS011;42803;55.762;38.084;2022-10-16T06:39:03;24.90;;;10.25;;
53010;SDS011;42803;55.762;38.084;2022-10-16T06:41:37;18.60;;;5.78;;
53010;SDS011;42803;55.762;38.084;2022-10-16T06:44:19;15.75;;;5.95;;
53010;SDS011;42803;55.762;38.084;2022-10-16T06:46:52;13.27;;;6.00;;
53010;SDS011;42803;55.762;38.084;2022-10-16T06:56:21;11.95;;;5.63;;
53010;SDS011;42803;55.762;38.084;2022-10-16T06:58:53;15.82;;;5.10;;
53010;SDS011;42803;55.762;38.084;2022-10-16T07:01:25;9.63;;;5.53;;
53010;SDS011;42803;55.762;38.084;2022-10-16T07:04:02;13.57;;;5.70;;
53010;SDS011;42803;55.762;38.084;2022-10-16T07:06:39;11.48;;;4.97;;
53010;SDS011;42803;55.762;38.084;2022-10-16T07:09:27;15.00;;;5.43;;
53010;SDS011;42803;55.762;38.084;2022-10-16T07:12:02;13.32;;;5.43;;
53010;SDS011;42803;55.762;38.084;2022-10-16T07:14:32;9.02;;;5.10;;
53010;SDS011;42803;55.762;38.084;2022-10-16T07:17:03;9.27;;;5.22;;
53010;SDS011;42803;55.762;38.084;2022-10-16T07:19:38;12.52;;;5.18;;
53010;SDS011;42803;55.762;38.084;2022-10-16T07:22:09;10.43;;;5.63;;
53010;SDS011;42803;55.762;38.084;2022-10-16T07:24:39;9.18;;;5.32;;
53010;SDS011;42803;55.762;38.084;2022-10-16T07:27:19;8.68;;;4.25;;
53010;SDS011;42803;55.762;38.084;2022-10-16T07:29:54;24.83;;;11.38;;
53010;SDS011;42803;55.762;38.084;2022-10-16T07:32:33;34.03;;;14.20;;
53010;SDS011;42803;55.762;38.084;2022-10-16T07:35:05;10.07;;;5.05;;
53010;SDS011;42803;55.762;38.084;2022-10-16T07:37:43;13.65;;;6.97;;
53010;SDS011;42803;55.762;38.084;2022-10-16T07:44:18;10.13;;;5.13;;
53010;SDS011;42803;55.762;38.084;2022-10-16T08:11:53;7.20;;;4.35;;
53010;SDS011;42803;55.762;38.084;2022-10-16T08:15:01;9.93;;;4.65;;
53010;SDS011;42803;55.762;38.084;2022-10-16T08:17:32;9.63;;;4.28;;
53010;SDS011;42803;55.762;38.084;2022-10-16T08:20:03;9.57;;;4.53;;
53010;SDS011;42803;55.762;38.084;2022-10-16T08:22:43;13.23;;;5.68;;
53010;SDS011;42803;55.762;38.084;2022-10-16T08:25:20;12.90;;;4.65;;
53010;SDS011;42803;55.762;38.084;2022-10-16T08:27:57;7.57;;;4.20;;
53010;SDS011;42803;55.762;38.084;2022-10-16T08:30:39;8.68;;;4.03;;
53010;SDS011;42803;55.762;38.084;2022-10-16T08:33:11;9.43;;;4.28;;
53010;SDS011;42803;55.762;38.084;2022-10-16T08:35:42;12.82;;;4.50;;
53010;SDS011;42803;55.762;38.084;2022-10-16T08:38:20;12.15;;;5.22;;
53010;SDS011;42803;55.762;38.084;2022-10-16T08:40:50;14.25;;;5.57;;
53010;SDS011;42803;55.762;38.084;2022-10-16T08:43:39;17.13;;;7.13;;
53010;SDS011;42803;55.762;38.084;2022-10-16T08:46:27;14.35;;;5.82;;
53010;SDS011;42803;55.762;38.084;2022-10-16T08:49:19;28.13;;;10.23;;
53010;SDS011;42803;55.762;38.084;2022-10-16T08:51:55;13.60;;;5.75;;
53010;SDS011;42803;55.762;38.084;2022-10-16T08:54:29;18.75;;;5.45;;
53010;SDS011;42803;55.762;38.084;2022-10-16T08:57:07;9.02;;;4.43;;
53010;SDS011;42803;55.762;38.084;2022-10-16T09:12:15;13.15;;;4.38;;
53010;SDS011;42803;55.762;38.084;2022-10-16T09:14:58;6.32;;;4.30;;
53010;SDS011;42803;55.762;38.084;2022-10-16T09:17:40;9.52;;;4.93;;
53010;SDS011;42803;55.762;38.084;2022-10-16T09:20:31;11.70;;;5.30;;
53010;SDS011;42803;55.762;38.084;2022-10-16T09:23:40;32.67;;;13.15;;
53010;SDS011;42803;55.762;38.084;2022-10-16T09:26:16;17.45;;;5.00;;
53010;SDS011;42803;55.762;38.084;2022-10-16T09:28:56;13.05;;;5.50;;
53010;SDS011;42803;55.762;38.084;2022-10-16T09:31:27;12.98;;;5.10;;
53010;SDS011;42803;55.762;38.084;2022-10-16T09:34:52;10.00;;;4.50;;
53010;SDS011;42803;55.762;38.084;2022-10-16T09:37:31;11.32;;;4.95;;
53010;SDS011;42803;55.762;38.084;2022-10-16T09:40:35;14.07;;;5.95;;
53010;SDS011;42803;55.762;38.084;2022-10-16T09:43:20;11.23;;;4.03;;
53010;SDS011;42803;55.762;38.084;2022-10-16T09:47:02;6.55;;;3.67;;
53010;SDS011;42803;55.762;38.084;2022-10-16T09:49:50;7.68;;;4.07;;
53010;SDS011;42803;55.762;38.084;2022-10-16T09:52:43;11.25;;;3.72;;
53010;SDS011;42803;55.762;38.084;2022-10-16T09:55:19;11.55;;;4.38;;
53010;SDS011;42803;55.762;38.084;2022-10-16T09:57:52;10.95;;;3.95;;
53010;SDS011;42803;55.762;38.084;2022-10-16T10:00:36;12.30;;;4.05;;
53010;SDS011;42803;55.762;38.084;2022-10-16T10:03:34;12.13;;;4.25;;
53010;SDS011;42803;55.762;38.084;2022-10-16T10:07:02;12.18;;;3.80;;
53010;SDS011;42803;55.762;38.084;2022-10-16T10:09:37;8.65;;;3.92;;
53010;SDS011;42803;55.762;38.084;2022-10-16T10:12:16;8.00;;;4.20;;
53010;SDS011;42803;55.762;38.084;2022-10-16T10:15:04;12.57;;;3.50;;
53010;SDS011;42803;55.762;38.084;2022-10-16T10:17:50;9.30;;;3.20;;
53010;SDS011;42803;55.762;38.084;2022-10-16T10:20:40;10.88;;;3.90;;
53010;SDS011;42803;55.762;38.084;2022-10-16T10:23:20;6.85;;;3.17;;
53010;SDS011;42803;55.762;38.084;2022-10-16T10:25:53;7.32;;;3.40;;
53010;SDS011;42803;55.762;38.084;2022-10-16T10:28:47;7.28;;;3.83;;
53010;SDS011;42803;55.762;38.084;2022-10-16T10:34:11;7.60;;;3.25;;
53010;SDS011;42803;55.762;38.084;2022-10-16T10:37:10;8.40;;;2.95;;
53010;SDS011;42803;55.762;38.084;2022-10-16T10:39:53;8.85;;;3.78;;
53010;SDS011;42803;55.762;38.084;2022-10-16T10:42:34;7.10;;;3.28;;
53010;SDS011;42803;55.762;38.084;2022-10-16T10:45:17;9.25;;;3.50;;
53010;SDS011;42803;55.762;38.084;2022-10-16T10:47:59;9.02;;;3.33;;
53010;SDS011;42803;55.762;38.084;2022-10-16T10:50:55;7.78;;;2.83;;
53010;SDS011;42803;55.762;38.084;2022-10-16T10:53:38;7.37;;;2.30;;
53010;SDS011;42803;55.762;38.084;2022-10-16T10:56:24;8.18;;;3.13;;
53010;SDS011;42803;55.762;38.084;2022-10-16T11:07:51;7.68;;;3.42;;
53010;SDS011;42803;55.762;38.084;2022-10-16T11:13:52;6.15;;;2.80;;
53010;SDS011;42803;55.762;38.084;2022-10-16T11:16:54;7.00;;;2.67;;
53010;SDS011;42803;55.762;38.084;2022-10-16T11:20:11;7.28;;;2.95;;
53010;SDS011;42803;55.762;38.084;2022-10-16T11:23:26;5.78;;;2.80;;
53010;SDS011;42803;55.762;38.084;2022-10-16T11:26:21;7.88;;;2.72;;
53010;SDS011;42803;55.762;38.084;2022-10-16T11:29:14;7.00;;;3.05;;
53010;SDS011;42803;55.762;38.084;2022-10-16T11:32:00;7.07;;;3.13;;
53010;SDS011;42803;55.762;38.084;2022-10-16T11:34:38;6.30;;;3.40;;
53010;SDS011;42803;55.762;38.084;2022-10-16T11:37:18;9.60;;;3.42;;
53010;SDS011;42803;55.762;38.084;2022-10-16T11:40:10;9.40;;;3.20;;
53010;SDS011;42803;55.762;38.084;2022-10-16T11:42:57;9.35;;;3.58;;
53010;SDS011;42803;55.762;38.084;2022-10-16T11:45:36;8.40;;;3.60;;
53010;SDS011;42803;55.762;38.084;2022-10-16T11:48:17;6.30;;;3.10;;
53010;SDS011;42803;55.762;38.084;2022-10-16T11:50:54;5.93;;;3.25;;
53010;SDS011;42803;55.762;38.084;2022-10-16T11:53:42;5.63;;;3.08;;
53010;SDS011;42803;55.762;38.084;2022-10-16T11:56:31;10.55;;;4.25;;
53010;SDS011;42803;55.762;38.084;2022-10-16T11:59:08;8.32;;;3.10;;
53010;SDS011;42803;55.762;38.084;2022-10-16T12:01:49;8.50;;;3.05;;
53010;SDS011;42803;55.762;38.084;2022-10-16T12:04:32;3.80;;;2.55;;
53010;SDS011;42803;55.762;38.084;2022-10-16T12:07:14;9.65;;;3.40;;
53010;SDS011;42803;55.762;38.084;2022-10-16T12:09:54;7.75;;;3.20;;
53010;SDS011;42803;55.762;38.084;2022-10-16T12:12:39;8.90;;;3.35;;
53010;SDS011;42803;55.762;38.084;2022-10-16T12:15:42;8.13;;;3.60;;
53010;SDS011;42803;55.762;38.084;2022-10-16T12:18:41;7.88;;;3.22;;
53010;SDS011;42803;55.762;38.084;2022-10-16T12:21:17;8.50;;;2.70;;
53010;SDS011;42803;55.762;38.084;2022-10-16T12:24:23;5.93;;;3.38;;
53010;SDS011;42803;55.762;38.084;2022-10-16T12:27:19;11.35;;;3.55;;
53010;SDS011;42803;55.762;38.084;2022-10-16T12:30:03;17.20;;;8.02;;
53010;SDS011;42803;55.762;38.084;2022-10-16T12:32:38;7.20;;;2.97;;
53010;SDS011;42803;55.762;38.084;2022-10-16T12:35:17;9.75;;;3.10;;
53010;SDS011;42803;55.762;38.084;2022-10-16T12:38:06;11.38;;;3.30;;
53010;SDS011;42803;55.762;38.084;2022-10-16T12:41:08;5.30;;;2.67;;
53010;SDS011;42803;55.762;38.084;2022-10-16T12:43:41;6.93;;;2.72;;
53010;SDS011;42803;55.762;38.084;2022-10-16T12:46:38;8.90;;;2.80;;
53010;SDS011;42803;55.762;38.084;2022-10-16T12:52:27;4.97;;;2.65;;
53010;SDS011;42803;55.762;38.084;2022-10-16T12:55:12;7.57;;;3.67;;
53010;SDS011;42803;55.762;38.084;2022-10-16T12:58:11;12.32;;;4.97;;
53010;SDS011;42803;55.762;38.084;2022-10-16T13:00:53;12.98;;;4.53;;
53010;SDS011;42803;55.762;38.084;2022-10-16T13:03:49;14.40;;;4.95;;
53010;SDS011;42803;55.762;38.084;2022-10-16T13:19:20;14.05;;;4.97;;
53010;SDS011;42803;55.762;38.084;2022-10-16T13:46:00;7.53;;;3.63;;
53010;SDS011;42803;55.762;38.084;2022-10-16T13:48:36;12.52;;;3.92;;
53010;SDS011;42803;55.762;38.084;2022-10-16T13:56:05;12.20;;;4.90;;
53010;SDS011;42803;55.762;38.084;2022-10-16T14:01:31;14.13;;;4.55;;
53010;SDS011;42803;55.762;38.084;2022-10-16T14:04:07;8.68;;;4.18;;
53010;SDS011;42803;55.762;38.084;2022-10-16T14:06:41;11.48;;;4.72;;
53010;SDS011;42803;55.762;38.084;2022-10-16T14:09:19;10.20;;;4.50;;
53010;SDS011;42803;55.762;38.084;2022-10-16T14:15:15;13.23;;;5.07;;
53010;SDS011;42803;55.762;38.084;2022-10-16T14:18:03;10.52;;;4.35;;
53010;SDS011;42803;55.762;38.084;2022-10-16T14:20:39;11.52;;;3.92;;
53010;SDS011;42803;55.762;38.084;2022-10-16T14:26:17;12.23;;;4.63;;
53010;SDS011;42803;55.762;38.084;2022-10-16T14:32:20;15.00;;;4.95;;
53010;SDS011;42803;55.762;38.084;2022-10-16T14:35:11;12.55;;;4.80;;
53010;SDS011;42803;55.762;38.084;2022-10-16T14:39:50;16.05;;;5.32;;
53010;SDS011;42803;55.762;38.084;2022-10-16T14:42:49;16.42;;;6.63;;
53010;SDS011;42803;55.762;38.084;2022-10-16T14:46:09;14.07;;;6.32;;
53010;SDS011;42803;55.762;38.084;2022-10-16T14:49:48;16.60;;;5.95;;
53010;SDS011;42803;55.762;38.084;2022-10-16T14:53:06;15.13;;;6.05;;
53010;SDS011;42803;55.762;38.084;2022-10-16T14:55:48;22.75;;;7.43;;
53010;SDS011;42803;55.762;38.084;2022-10-16T15:07:06;17.70;;;7.63;;
53010;SDS011;42803;55.762;38.084;2022-10-16T15:09:43;20.95;;;9.02;;
53010;SDS011;42803;55.762;38.084;2022-10-16T15:12:33;23.17;;;7.55;;
53010;SDS011;42803;55.762;38.084;2022-10-16T15:15:14;22.70;;;8.13;;
53010;SDS011;42803;55.762;38.084;2022-10-16T15:18:21;24.02;;;9.52;;
53010;SDS011;42803;55.762;38.084;2022-10-16T15:20:58;21.98;;;9.25;;
53010;SDS011;42803;55.762;38.084;2022-10-16T15:24:00;23.52;;;9.98;;
53010;SDS011;42803;55.762;38.084;2022-10-16T15:26:41;28.25;;;9.57;;
53010;SDS011;42803;55.762;38.084;2022-10-16T15:29:27;25.33;;;10.35;;
53010;SDS011;42803;55.762;38.084;2022-10-16T15:32:04;26.73;;;10.30;;
53010;SDS011;42803;55.762;38.084;2022-10-16T15:34:47;25.83;;;10.05;;
53010;SDS011;42803;55.762;38.084;2022-10-16T15:37:34;24.67;;;9.65;;
53010;SDS011;42803;55.762;38.084;2022-10-16T15:40:19;23.90;;;10.02;;
53010;SDS011;42803;55.762;38.084;2022-10-16T15:43:11;25.15;;;12.75;;
53010;SDS011;42803;55.762;38.084;2022-10-16T15:45:46;23.38;;;10.13;;
53010;SDS011;42803;55.762;38.084;2022-10-16T15:48:33;24.42;;;10.27;;
53010;SDS011;42803;55.762;38.084;2022-10-16T15:51:06;31.85;;;11.85;;
53010;SDS011;42803;55.762;38.084;2022-10-16T15:53:40;25.85;;;11.13;;
53010;SDS011;42803;55.762;38.084;2022-10-16T15:56:46;24.02;;;10.77;;
53010;SDS011;42803;55.762;38.084;2022-10-16T15:59:46;27.73;;;11.77;;
53010;SDS011;42803;55.762;38.084;2022-10-16T16:02:44;23.52;;;11.32;;
53010;SDS011;42803;55.762;38.084;2022-10-16T16:05:44;25.95;;;11.20;;
53010;SDS011;42803;55.762;38.084;2022-10-16T16:23:49;27.00;;;10.77;;
53010;SDS011;42803;55.762;38.084;2022-10-16T16:26:49;21.08;;;10.10;;
53010;SDS011;42803;55.762;38.084;2022-10-16T16:30:11;21.85;;;10.32;;
53010;SDS011;42803;55.762;38.084;2022-10-16T16:32:59;22.40;;;9.63;;
53010;SDS011;42803;55.762;38.084;2022-10-16T16:36:00;27.33;;;10.07;;
53010;SDS011;42803;55.762;38.084;2022-10-16T16:42:13;20.25;;;8.68;;
53010;SDS011;42803;55.762;38.084;2022-10-16T16:45:02;25.20;;;9.55;;
53010;SDS011;42803;55.762;38.084;2022-10-16T16:48:12;19.65;;;8.00;;
53010;SDS011;42803;55.762;38.084;2022-10-16T16:51:26;21.25;;;9.05;;
53010;SDS011;42803;55.762;38.084;2022-10-16T16:54:40;23.60;;;10.40;;
53010;SDS011;42803;55.762;38.084;2022-10-16T16:57:57;20.30;;;9.05;;
53010;SDS011;42803;55.762;38.084;2022-10-16T17:11:26;24.15;;;10.00;;
53010;SDS011;42803;55.762;38.084;2022-10-16T17:14:51;28.70;;;11.57;;
53010;SDS011;42803;55.762;38.084;2022-10-16T17:17:44;31.00;;;11.93;;
53010;SDS011;42803;55.762;38.084;2022-10-16T17:23:54;29.77;;;14.40;;
53010;SDS011;42803;55.762;38.084;2022-10-16T17:26:47;32.97;;;14.65;;
53010;SDS011;42803;55.762;38.084;2022-10-16T17:33:06;28.67;;;12.35;;
53010;SDS011;42803;55.762;38.084;2022-10-16T17:35:53;28.23;;;12.05;;
53010;SDS011;42803;55.762;38.084;2022-10-16T17:53:22;28.30;;;10.93;;
53010;SDS011;42803;55.762;38.084;2022-10-16T17:56:54;17.13;;;8.90;;
53010;SDS011;42803;55.762;38.084;2022-10-16T18:04:42;24.52;;;9.50;;
53010;SDS011;42803;55.762;38.084;2022-10-16T18:07:51;24.02;;;10.98;;
53010;SDS011;42803;55.762;38.084;2022-10-16T18:11:16;21.95;;;9.70;;
53010;SDS011;42803;55.762;38.084;2022-10-16T18:14:40;20.05;;;8.75;;
53010;SDS011;42803;55.762;38.084;2022-10-16T18:18:07;25.05;;;10.10;;
53010;SDS011;42803;55.762;38.084;2022-10-16T18:24:52;28.02;;;12.60;;
53010;SDS011;42803;55.762;38.084;2022-10-16T18:28:11;25.23;;;11.10;;
53010;SDS011;42803;55.762;38.084;2022-10-16T18:31:15;21.17;;;8.82;;
53010;SDS011;42803;55.762;38.084;2022-10-16T18:34:40;21.60;;;7.70;;
53010;SDS011;42803;55.762;38.084;2022-10-16T18:37:39;17.23;;;7.53;;
53010;SDS011;42803;55.762;38.084;2022-10-16T18:40:31;14.38;;;6.15;;
53010;SDS011;42803;55.762;38.084;2022-10-16T18:43:28;16.33;;;7.22;;
53010;SDS011;42803;55.762;38.084;2022-10-16T18:46:20;22.65;;;9.80;;
53010;SDS011;42803;55.762;38.084;2022-10-16T18:52:52;13.30;;;6.20;;
53010;SDS011;42803;55.762;38.084;2022-10-16T18:55:35;17.98;;;7.00;;
53010;SDS011;42803;55.762;38.084;2022-10-16T18:58:28;18.90;;;8.93;;
53010;SDS011;42803;55.762;38.084;2022-10-16T19:01:18;26.95;;;14.93;;
53010;SDS011;42803;55.762;38.084;2022-10-16T19:04:02;33.95;;;18.35;;
53010;SDS011;42803;55.762;38.084;2022-10-16T19:07:08;33.67;;;17.77;;
53010;SDS011;42803;55.762;38.084;2022-10-16T19:09:51;29.67;;;14.68;;
53010;SDS011;42803;55.762;38.084;2022-10-16T19:12:55;26.05;;;12.15;;
53010;SDS011;42803;55.762;38.084;2022-10-16T19:16:24;23.23;;;10.85;;
53010;SDS011;42803;55.762;38.084;2022-10-16T19:23:49;24.48;;;9.68;;
53010;SDS011;42803;55.762;38.084;2022-10-16T19:27:19;17.92;;;8.15;;
53010;SDS011;42803;55.762;38.084;2022-10-16T19:31:11;16.53;;;7.33;;
53010;SDS011;42803;55.762;38.084;2022-10-16T19:34:34;13.75;;;7.40;;
53010;SDS011;42803;55.762;38.084;2022-10-16T19:38:06;16.85;;;8.10;;
53010;SDS011;42803;55.762;38.084;2022-10-16T19:49:20;14.93;;;6.43;;
53010;SDS011;42803;55.762;38.084;2022-10-16T19:55:07;13.70;;;6.90;;
53010;SDS011;42803;55.762;38.084;2022-10-16T19:57:56;12.85;;;5.75;;